sensor_id;sensor_type;location;lat;lon;timestamp;temperature;humidity
41469;DHT22;27206;47.032;15.484;2023-03-01T00:02:01;1.90;99.90
41469;DHT22;27206;47.032;15.484;2023-03-01T00:04:27;1.90;99.90
41469;DHT22;27206;47.032;15.484;2023-03-01T00:07:01;1.90;99.90
41469;DHT22;27206;47.032;15.484;2023-03-01T00:09:27;1.90;99.90
41469;DHT22;27206;47.032;15.484;2023-03-01T00:11:52;1.90;99.90
41469;DHT22;27206;47.032;15.484;2023-03-01T00:14:18;1.90;99.90
41469;DHT22;27206;47.032;15.484;2023-03-01T00:16:45;1.90;99.90
41469;DHT22;27206;47.032;15.484;2023-03-01T00:19:16;1.90;99.90
41469;DHT22;27206;47.032;15.484;2023-03-01T00:21:43;1.90;99.90
41469;DHT22;27206;47.032;15.484;2023-03-01T00:24:10;1.90;99.90
41469;DHT22;27206;47.032;15.484;2023-03-01T00:26:36;1.90;99.90
41469;DHT22;27206;47.032;15.484;2023-03-01T00:29:02;1.90;99.90
41469;DHT22;27206;47.032;15.484;2023-03-01T00:31:31;2.00;99.90
41469;DHT22;27206;47.032;15.484;2023-03-01T00:34:02;1.90;99.90
41469;DHT22;27206;47.032;15.484;2023-03-01T00:36:34;1.90;99.90
41469;DHT22;27206;47.032;15.484;2023-03-01T00:39:00;1.90;99.90
41469;DHT22;27206;47.032;15.484;2023-03-01T00:41:26;2.00;99.90
41469;DHT22;27206;47.032;15.484;2023-03-01T00:43:52;2.00;99.90
41469;DHT22;27206;47.032;15.484;2023-03-01T00:46:21;2.00;99.90
41469;DHT22;27206;47.032;15.484;2023-03-01T00:48:47;2.00;99.90
41469;DHT22;27206;47.032;15.484;2023-03-01T00:51:25;2.00;99.90
41469;DHT22;27206;47.032;15.484;2023-03-01T00:53:53;2.00;99.90
41469;DHT22;27206;47.032;15.484;2023-03-01T00:56:19;2.00;99.90
41469;DHT22;27206;47.032;15.484;2023-03-01T00:58:46;2.00;99.90
41469;DHT22;27206;47.032;15.484;2023-03-01T01:01:14;2.00;99.90
41469;DHT22;27206;47.032;15.484;2023-03-01T01:04:07;2.00;99.90
41469;DHT22;27206;47.032;15.484;2023-03-01T01:06:35;2.00;99.90
41469;DHT22;27206;47.032;15.484;2023-03-01T01:09:04;2.00;99.90
41469;DHT22;27206;47.032;15.484;2023-03-01T01:11:30;2.00;99.90
41469;DHT22;27206;47.032;15.484;2023-03-01T01:13:56;2.00;99.90
41469;DHT22;27206;47.032;15.484;2023-03-01T01:16:24;2.10;99.90
41469;DHT22;27206;47.032;15.484;2023-03-01T01:18:50;2.10;99.90
41469;DHT22;27206;47.032;15.484;2023-03-01T01:21:19;2.00;99.90
41469;DHT22;27206;47.032;15.484;2023-03-01T01:23:46;1.90;99.90
41469;DHT22;27206;47.032;15.484;2023-03-01T01:26:15;2.00;99.90
41469;DHT22;27206;47.032;15.484;2023-03-01T01:28:41;2.00;99.90
41469;DHT22;27206;47.032;15.484;2023-03-01T01:31:06;1.90;99.90
41469;DHT22;27206;47.032;15.484;2023-03-01T01:33:33;1.90;99.90
41469;DHT22;27206;47.032;15.484;2023-03-01T01:35:59;1.90;99.90
41469;DHT22;27206;47.032;15.484;2023-03-01T01:38:25;2.00;99.90
41469;DHT22;27206;47.032;15.484;2023-03-01T01:40:51;2.00;99.90
41469;DHT22;27206;47.032;15.484;2023-03-01T01:43:24;2.10;99.90
41469;DHT22;27206;47.032;15.484;2023-03-01T01:45:52;2.10;99.90
41469;DHT22;27206;47.032;15.484;2023-03-01T01:48:22;2.10;99.90
41469;DHT22;27206;47.032;15.484;2023-03-01T01:50:59;2.10;99.90
41469;DHT22;27206;47.032;15.484;2023-03-01T01:53:26;2.20;99.90
41469;DHT22;27206;47.032;15.484;2023-03-01T01:55:56;2.20;99.90
41469;DHT22;27206;47.032;15.484;2023-03-01T01:58:25;2.20;99.90
41469;DHT22;27206;47.032;15.484;2023-03-01T02:00:53;2.20;99.90
41469;DHT22;27206;47.032;15.484;2023-03-01T02:03:24;2.20;99.90
41469;DHT22;27206;47.032;15.484;2023-03-01T02:05:58;2.20;99.90
41469;DHT22;27206;47.032;15.484;2023-03-01T02:08:29;2.20;99.90
41469;DHT22;27206;47.032;15.484;2023-03-01T02:10:56;2.20;99.90
41469;DHT22;27206;47.032;15.484;2023-03-01T02:13:23;2.20;99.90
41469;DHT22;27206;47.032;15.484;2023-03-01T02:15:49;2.10;99.90
41469;DHT22;27206;47.032;15.484;2023-03-01T02:18:17;2.10;99.90
41469;DHT22;27206;47.032;15.484;2023-03-01T02:23:29;2.30;99.90
41469;DHT22;27206;47.032;15.484;2023-03-01T02:30:50;2.30;99.90
41469;DHT22;27206;47.032;15.484;2023-03-01T02:33:37;2.30;99.90
41469;DHT22;27206;47.032;15.484;2023-03-01T02:36:07;2.40;99.90
41469;DHT22;27206;47.032;15.484;2023-03-01T02:38:33;2.30;99.90
41469;DHT22;27206;47.032;15.484;2023-03-01T02:41:00;2.30;99.90
41469;DHT22;27206;47.032;15.484;2023-03-01T02:43:29;2.30;99.90
41469;DHT22;27206;47.032;15.484;2023-03-01T02:45:59;2.30;99.90
41469;DHT22;27206;47.032;15.484;2023-03-01T02:48:27;2.20;99.90
41469;DHT22;27206;47.032;15.484;2023-03-01T02:51:14;2.20;99.90
41469;DHT22;27206;47.032;15.484;2023-03-01T02:54:05;2.20;99.90
41469;DHT22;27206;47.032;15.484;2023-03-01T02:56:32;2.30;99.90
41469;DHT22;27206;47.032;15.484;2023-03-01T02:58:58;2.20;99.90
41469;DHT22;27206;47.032;15.484;2023-03-01T03:01:26;2.20;99.90
41469;DHT22;27206;47.032;15.484;2023-03-01T03:04:05;2.20;99.90
41469;DHT22;27206;47.032;15.484;2023-03-01T03:06:32;2.20;99.90
41469;DHT22;27206;47.032;15.484;2023-03-01T03:08:58;2.20;99.90
41469;DHT22;27206;47.032;15.484;2023-03-01T03:11:23;2.20;99.90
41469;DHT22;27206;47.032;15.484;2023-03-01T03:13:49;2.20;99.90
41469;DHT22;27206;47.032;15.484;2023-03-01T03:16:15;2.20;99.90
41469;DHT22;27206;47.032;15.484;2023-03-01T03:18:41;2.30;99.90
41469;DHT22;27206;47.032;15.484;2023-03-01T03:21:11;2.30;99.90
41469;DHT22;27206;47.032;15.484;2023-03-01T03:23:37;2.30;99.90
41469;DHT22;27206;47.032;15.484;2023-03-01T03:26:04;2.30;99.90
41469;DHT22;27206;47.032;15.484;2023-03-01T03:28:32;2.30;99.90
41469;DHT22;27206;47.032;15.484;2023-03-01T03:30:58;2.30;99.90
41469;DHT22;27206;47.032;15.484;2023-03-01T03:33:24;2.30;99.90
41469;DHT22;27206;47.032;15.484;2023-03-01T03:35:50;2.30;99.90
41469;DHT22;27206;47.032;15.484;2023-03-01T03:38:18;2.30;99.90
41469;DHT22;27206;47.032;15.484;2023-03-01T03:40:47;2.20;99.90
41469;DHT22;27206;47.032;15.484;2023-03-01T03:43:16;2.20;99.90
41469;DHT22;27206;47.032;15.484;2023-03-01T03:45:44;2.30;99.90
41469;DHT22;27206;47.032;15.484;2023-03-01T03:48:10;2.30;99.90
41469;DHT22;27206;47.032;15.484;2023-03-01T03:50:37;2.30;99.90
41469;DHT22;27206;47.032;15.484;2023-03-01T03:53:06;2.40;99.90
41469;DHT22;27206;47.032;15.484;2023-03-01T03:55:33;2.30;99.90
41469;DHT22;27206;47.032;15.484;2023-03-01T03:58:00;2.30;99.90
41469;DHT22;27206;47.032;15.484;2023-03-01T04:00:34;2.30;99.90
41469;DHT22;27206;47.032;15.484;2023-03-01T04:03:00;2.40;99.90
41469;DHT22;27206;47.032;15.484;2023-03-01T04:05:26;2.40;99.90
41469;DHT22;27206;47.032;15.484;2023-03-01T04:07:52;2.40;99.90
41469;DHT22;27206;47.032;15.484;2023-03-01T04:10:28;2.20;99.90
41469;DHT22;27206;47.032;15.484;2023-03-01T04:12:54;2.20;99.90
41469;DHT22;27206;47.032;15.484;2023-03-01T04:15:24;2.20;99.90
41469;DHT22;27206;47.032;15.484;2023-03-01T04:17:51;2.20;99.90
41469;DHT22;27206;47.032;15.484;2023-03-01T04:20:31;2.20;99.90
41469;DHT22;27206;47.032;15.484;2023-03-01T04:23:08;2.20;99.90
41469;DHT22;27206;47.032;15.484;2023-03-01T04:25:49;2.30;99.90
41469;DHT22;27206;47.032;15.484;2023-03-01T04:28:27;2.30;99.90
41469;DHT22;27206;47.032;15.484;2023-03-01T04:30:54;2.40;99.90
41469;DHT22;27206;47.032;15.484;2023-03-01T04:33:20;2.50;99.90
41469;DHT22;27206;47.032;15.484;2023-03-01T04:35:46;2.50;99.90
41469;DHT22;27206;47.032;15.484;2023-03-01T04:38:15;2.40;99.90
41469;DHT22;27206;47.032;15.484;2023-03-01T04:40:41;2.40;99.90
41469;DHT22;27206;47.032;15.484;2023-03-01T04:43:09;2.40;99.90
41469;DHT22;27206;47.032;15.484;2023-03-01T04:45:35;2.40;99.90
41469;DHT22;27206;47.032;15.484;2023-03-01T04:48:02;2.40;99.90
41469;DHT22;27206;47.032;15.484;2023-03-01T04:50:28;2.40;99.90
41469;DHT22;27206;47.032;15.484;2023-03-01T04:52:54;2.40;99.90
41469;DHT22;27206;47.032;15.484;2023-03-01T04:55:24;2.40;99.90
41469;DHT22;27206;47.032;15.484;2023-03-01T04:57:51;2.40;99.90
41469;DHT22;27206;47.032;15.484;2023-03-01T05:00:18;2.40;99.90
41469;DHT22;27206;47.032;15.484;2023-03-01T05:02:54;2.40;99.90
41469;DHT22;27206;47.032;15.484;2023-03-01T05:05:27;2.40;99.90
41469;DHT22;27206;47.032;15.484;2023-03-01T05:07:55;2.40;99.90
41469;DHT22;27206;47.032;15.484;2023-03-01T05:10:22;2.30;99.90
41469;DHT22;27206;47.032;15.484;2023-03-01T05:12:48;2.30;99.90
41469;DHT22;27206;47.032;15.484;2023-03-01T05:15:13;2.30;99.90
41469;DHT22;27206;47.032;15.484;2023-03-01T05:17:39;2.40;99.90
41469;DHT22;27206;47.032;15.484;2023-03-01T05:20:05;2.40;99.90
41469;DHT22;27206;47.032;15.484;2023-03-01T05:22:34;2.30;99.90
41469;DHT22;27206;47.032;15.484;2023-03-01T05:25:01;2.30;99.90
41469;DHT22;27206;47.032;15.484;2023-03-01T05:27:27;2.40;99.90
41469;DHT22;27206;47.032;15.484;2023-03-01T05:29:53;2.40;99.90
41469;DHT22;27206;47.032;15.484;2023-03-01T05:32:18;2.30;99.90
41469;DHT22;27206;47.032;15.484;2023-03-01T05:34:44;2.20;99.90
41469;DHT22;27206;47.032;15.484;2023-03-01T05:37:12;2.20;99.90
41469;DHT22;27206;47.032;15.484;2023-03-01T05:39:39;2.20;99.90
41469;DHT22;27206;47.032;15.484;2023-03-01T05:42:05;2.20;99.90
41469;DHT22;27206;47.032;15.484;2023-03-01T05:44:31;2.10;99.90
41469;DHT22;27206;47.032;15.484;2023-03-01T05:46:56;2.20;99.90
41469;DHT22;27206;47.032;15.484;2023-03-01T05:49:22;2.20;99.90
41469;DHT22;27206;47.032;15.484;2023-03-01T05:51:52;2.30;99.90
41469;DHT22;27206;47.032;15.484;2023-03-01T05:54:19;2.40;99.90
41469;DHT22;27206;47.032;15.484;2023-03-01T05:56:45;2.40;99.90
41469;DHT22;27206;47.032;15.484;2023-03-01T05:59:11;2.40;99.90
41469;DHT22;27206;47.032;15.484;2023-03-01T06:01:37;2.30;99.90
41469;DHT22;27206;47.032;15.484;2023-03-01T06:04:03;2.40;99.90
41469;DHT22;27206;47.032;15.484;2023-03-01T06:06:29;2.40;99.90
41469;DHT22;27206;47.032;15.484;2023-03-01T06:08:55;2.40;99.90
41469;DHT22;27206;47.032;15.484;2023-03-01T06:11:21;2.40;99.90
41469;DHT22;27206;47.032;15.484;2023-03-01T06:13:47;2.50;99.90
41469;DHT22;27206;47.032;15.484;2023-03-01T06:16:13;2.40;99.90
41469;DHT22;27206;47.032;15.484;2023-03-01T06:18:40;2.40;99.90
41469;DHT22;27206;47.032;15.484;2023-03-01T06:21:07;2.50;99.90
41469;DHT22;27206;47.032;15.484;2023-03-01T06:23:33;2.40;99.90
41469;DHT22;27206;47.032;15.484;2023-03-01T06:25:59;2.40;99.90
41469;DHT22;27206;47.032;15.484;2023-03-01T06:28:25;2.50;99.90
41469;DHT22;27206;47.032;15.484;2023-03-01T06:30:51;2.60;99.90
41469;DHT22;27206;47.032;15.484;2023-03-01T06:33:17;2.60;99.90
41469;DHT22;27206;47.032;15.484;2023-03-01T06:35:45;2.60;99.90
41469;DHT22;27206;47.032;15.484;2023-03-01T06:38:11;2.60;99.90
41469;DHT22;27206;47.032;15.484;2023-03-01T06:40:40;2.60;99.90
41469;DHT22;27206;47.032;15.484;2023-03-01T06:43:06;2.70;99.90
41469;DHT22;27206;47.032;15.484;2023-03-01T06:45:33;2.70;99.90
41469;DHT22;27206;47.032;15.484;2023-03-01T06:48:08;2.70;99.90
41469;DHT22;27206;47.032;15.484;2023-03-01T06:50:34;2.70;99.90
41469;DHT22;27206;47.032;15.484;2023-03-01T06:53:00;2.70;99.90
41469;DHT22;27206;47.032;15.484;2023-03-01T06:55:27;2.70;99.90
41469;DHT22;27206;47.032;15.484;2023-03-01T06:57:59;2.70;99.90
41469;DHT22;27206;47.032;15.484;2023-03-01T07:00:26;2.70;99.90
41469;DHT22;27206;47.032;15.484;2023-03-01T07:02:52;2.70;99.90
41469;DHT22;27206;47.032;15.484;2023-03-01T07:05:18;2.70;99.90
41469;DHT22;27206;47.032;15.484;2023-03-01T07:07:44;2.70;99.90
41469;DHT22;27206;47.032;15.484;2023-03-01T07:10:11;2.80;99.90
41469;DHT22;27206;47.032;15.484;2023-03-01T07:12:37;2.90;99.90
41469;DHT22;27206;47.032;15.484;2023-03-01T07:15:03;3.00;99.90
41469;DHT22;27206;47.032;15.484;2023-03-01T07:17:29;3.10;99.90
41469;DHT22;27206;47.032;15.484;2023-03-01T07:19:56;3.00;99.90
41469;DHT22;27206;47.032;15.484;2023-03-01T07:22:22;3.00;99.90
41469;DHT22;27206;47.032;15.484;2023-03-01T07:24:47;3.00;99.90
41469;DHT22;27206;47.032;15.484;2023-03-01T07:27:13;3.10;99.90
41469;DHT22;27206;47.032;15.484;2023-03-01T07:29:39;3.00;99.90
41469;DHT22;27206;47.032;15.484;2023-03-01T07:32:05;2.70;99.90
41469;DHT22;27206;47.032;15.484;2023-03-01T07:34:31;2.80;99.90
41469;DHT22;27206;47.032;15.484;2023-03-01T07:36:57;2.70;99.90
41469;DHT22;27206;47.032;15.484;2023-03-01T07:39:22;2.80;99.90
41469;DHT22;27206;47.032;15.484;2023-03-01T07:41:49;2.80;99.90
41469;DHT22;27206;47.032;15.484;2023-03-01T07:44:15;2.90;99.90
41469;DHT22;27206;47.032;15.484;2023-03-01T07:46:41;3.00;99.90
41469;DHT22;27206;47.032;15.484;2023-03-01T07:49:07;3.10;99.90
41469;DHT22;27206;47.032;15.484;2023-03-01T07:51:33;3.10;99.90
41469;DHT22;27206;47.032;15.484;2023-03-01T07:53:58;3.10;99.90
41469;DHT22;27206;47.032;15.484;2023-03-01T07:56:24;3.10;99.90
41469;DHT22;27206;47.032;15.484;2023-03-01T07:58:50;3.10;99.90
41469;DHT22;27206;47.032;15.484;2023-03-01T08:01:18;3.10;99.90
41469;DHT22;27206;47.032;15.484;2023-03-01T08:03:48;3.20;99.90
41469;DHT22;27206;47.032;15.484;2023-03-01T08:06:16;3.10;99.90
41469;DHT22;27206;47.032;15.484;2023-03-01T08:08:43;3.20;99.90
41469;DHT22;27206;47.032;15.484;2023-03-01T08:11:11;3.20;99.90
41469;DHT22;27206;47.032;15.484;2023-03-01T08:13:37;3.20;99.90
41469;DHT22;27206;47.032;15.484;2023-03-01T08:16:05;3.30;99.90
41469;DHT22;27206;47.032;15.484;2023-03-01T08:18:32;3.50;99.90
41469;DHT22;27206;47.032;15.484;2023-03-01T08:21:05;3.50;99.90
41469;DHT22;27206;47.032;15.484;2023-03-01T08:23:31;3.50;99.90
41469;DHT22;27206;47.032;15.484;2023-03-01T08:26:13;3.60;99.90
41469;DHT22;27206;47.032;15.484;2023-03-01T08:28:39;3.20;99.90
41469;DHT22;27206;47.032;15.484;2023-03-01T08:31:24;3.20;99.90
41469;DHT22;27206;47.032;15.484;2023-03-01T08:33:51;3.20;99.90
41469;DHT22;27206;47.032;15.484;2023-03-01T08:36:21;3.40;99.90
41469;DHT22;27206;47.032;15.484;2023-03-01T08:38:47;3.60;99.90
41469;DHT22;27206;47.032;15.484;2023-03-01T08:41:13;3.80;99.90
41469;DHT22;27206;47.032;15.484;2023-03-01T08:43:40;3.60;99.90
41469;DHT22;27206;47.032;15.484;2023-03-01T08:46:06;3.60;99.90
41469;DHT22;27206;47.032;15.484;2023-03-01T08:48:31;3.60;99.90
41469;DHT22;27206;47.032;15.484;2023-03-01T08:51:05;3.70;99.90
41469;DHT22;27206;47.032;15.484;2023-03-01T08:53:31;3.70;99.90
41469;DHT22;27206;47.032;15.484;2023-03-01T08:56:00;4.00;99.90
41469;DHT22;27206;47.032;15.484;2023-03-01T08:58:28;3.90;99.90
41469;DHT22;27206;47.032;15.484;2023-03-01T09:00:54;3.80;99.90
41469;DHT22;27206;47.032;15.484;2023-03-01T09:03:22;3.50;99.90
41469;DHT22;27206;47.032;15.484;2023-03-01T09:05:48;3.40;99.90
41469;DHT22;27206;47.032;15.484;2023-03-01T09:08:18;3.30;99.90
41469;DHT22;27206;47.032;15.484;2023-03-01T09:10:45;3.30;99.90
41469;DHT22;27206;47.032;15.484;2023-03-01T09:13:11;3.60;99.90
41469;DHT22;27206;47.032;15.484;2023-03-01T09:15:37;3.50;99.90
41469;DHT22;27206;47.032;15.484;2023-03-01T09:18:04;3.40;99.90
41469;DHT22;27206;47.032;15.484;2023-03-01T09:20:31;3.30;99.90
41469;DHT22;27206;47.032;15.484;2023-03-01T09:22:57;3.40;99.90
41469;DHT22;27206;47.032;15.484;2023-03-01T09:25:23;3.40;99.90
41469;DHT22;27206;47.032;15.484;2023-03-01T09:27:51;3.40;99.90
41469;DHT22;27206;47.032;15.484;2023-03-01T09:30:17;3.60;99.90
41469;DHT22;27206;47.032;15.484;2023-03-01T09:32:43;3.60;99.90
41469;DHT22;27206;47.032;15.484;2023-03-01T09:35:10;3.50;99.90
41469;DHT22;27206;47.032;15.484;2023-03-01T09:37:37;3.50;99.90
41469;DHT22;27206;47.032;15.484;2023-03-01T09:40:04;3.50;99.90
41469;DHT22;27206;47.032;15.484;2023-03-01T09:42:33;3.60;99.90
41469;DHT22;27206;47.032;15.484;2023-03-01T09:45:25;3.60;99.90
41469;DHT22;27206;47.032;15.484;2023-03-01T09:47:51;3.70;99.90
41469;DHT22;27206;47.032;15.484;2023-03-01T09:50:19;3.70;99.90
41469;DHT22;27206;47.032;15.484;2023-03-01T09:53:01;3.70;99.90
41469;DHT22;27206;47.032;15.484;2023-03-01T09:55:38;3.60;99.90
41469;DHT22;27206;47.032;15.484;2023-03-01T09:58:28;3.70;99.90
41469;DHT22;27206;47.032;15.484;2023-03-01T10:00:57;3.90;99.90
41469;DHT22;27206;47.032;15.484;2023-03-01T10:06:31;3.90;99.90
41469;DHT22;27206;47.032;15.484;2023-03-01T10:09:13;4.20;99.90
41469;DHT22;27206;47.032;15.484;2023-03-01T10:11:50;4.20;99.90
41469;DHT22;27206;47.032;15.484;2023-03-01T10:17:04;4.20;99.90
41469;DHT22;27206;47.032;15.484;2023-03-01T10:19:40;4.50;99.90
41469;DHT22;27206;47.032;15.484;2023-03-01T10:22:24;4.20;99.90
41469;DHT22;27206;47.032;15.484;2023-03-01T10:24:54;4.20;99.90
41469;DHT22;27206;47.032;15.484;2023-03-01T10:27:25;4.30;99.90
41469;DHT22;27206;47.032;15.484;2023-03-01T10:32:38;4.30;99.90
41469;DHT22;27206;47.032;15.484;2023-03-01T10:35:21;4.40;99.90
41469;DHT22;27206;47.032;15.484;2023-03-01T10:38:07;4.50;99.90
41469;DHT22;27206;47.032;15.484;2023-03-01T10:40:34;4.50;99.90
41469;DHT22;27206;47.032;15.484;2023-03-01T10:43:05;4.40;99.90
41469;DHT22;27206;47.032;15.484;2023-03-01T10:45:38;4.30;99.90
41469;DHT22;27206;47.032;15.484;2023-03-01T10:48:06;4.30;99.90
41469;DHT22;27206;47.032;15.484;2023-03-01T10:50:32;4.00;99.90
41469;DHT22;27206;47.032;15.484;2023-03-01T10:53:02;3.80;99.90
41469;DHT22;27206;47.032;15.484;2023-03-01T10:55:37;3.80;99.90
41469;DHT22;27206;47.032;15.484;2023-03-01T10:58:17;3.80;99.90
41469;DHT22;27206;47.032;15.484;2023-03-01T11:00:59;3.90;99.90
41469;DHT22;27206;47.032;15.484;2023-03-01T11:03:29;4.10;99.90
41469;DHT22;27206;47.032;15.484;2023-03-01T11:06:21;4.10;99.90
41469;DHT22;27206;47.032;15.484;2023-03-01T11:08:49;4.00;99.90
41469;DHT22;27206;47.032;15.484;2023-03-01T11:11:22;4.00;99.90
41469;DHT22;27206;47.032;15.484;2023-03-01T11:16:29;4.30;99.90
41469;DHT22;27206;47.032;15.484;2023-03-01T11:19:13;4.40;99.90
41469;DHT22;27206;47.032;15.484;2023-03-01T11:21:44;4.40;99.90
41469;DHT22;27206;47.032;15.484;2023-03-01T11:24:14;4.30;99.90
41469;DHT22;27206;47.032;15.484;2023-03-01T11:26:45;4.30;99.90
41469;DHT22;27206;47.032;15.484;2023-03-01T11:32:01;4.20;99.90
41469;DHT22;27206;47.032;15.484;2023-03-01T11:34:57;4.40;99.90
41469;DHT22;27206;47.032;15.484;2023-03-01T11:40:32;4.40;99.90
41469;DHT22;27206;47.032;15.484;2023-03-01T11:48:50;4.50;99.90
41469;DHT22;27206;47.032;15.484;2023-03-01T11:54:41;4.80;99.90
41469;DHT22;27206;47.032;15.484;2023-03-01T11:57:27;4.90;99.90
41469;DHT22;27206;47.032;15.484;2023-03-01T12:10:27;6.20;99.90
41469;DHT22;27206;47.032;15.484;2023-03-01T12:13:22;5.50;99.90
41469;DHT22;27206;47.032;15.484;2023-03-01T12:21:18;5.60;99.90
41469;DHT22;27206;47.032;15.484;2023-03-01T12:26:29;5.70;99.90
41469;DHT22;27206;47.032;15.484;2023-03-01T12:37:40;5.40;99.90
41469;DHT22;27206;47.032;15.484;2023-03-01T12:51:30;5.30;99.90
41469;DHT22;27206;47.032;15.484;2023-03-01T12:53:59;5.30;99.90
41469;DHT22;27206;47.032;15.484;2023-03-01T12:56:30;5.50;99.90
41469;DHT22;27206;47.032;15.484;2023-03-01T13:01:45;5.60;99.90
41469;DHT22;27206;47.032;15.484;2023-03-01T13:04:31;5.70;99.90
41469;DHT22;27206;47.032;15.484;2023-03-01T13:07:16;5.70;99.90
41469;DHT22;27206;47.032;15.484;2023-03-01T13:15:35;5.70;99.90
41469;DHT22;27206;47.032;15.484;2023-03-01T13:23:25;6.00;99.90
41469;DHT22;27206;47.032;15.484;2023-03-01T13:26:01;6.30;99.90
41469;DHT22;27206;47.032;15.484;2023-03-01T13:31:08;6.10;99.90
41469;DHT22;27206;47.032;15.484;2023-03-01T13:36:07;6.10;99.90
41469;DHT22;27206;47.032;15.484;2023-03-01T13:38:46;5.90;99.90
41469;DHT22;27206;47.032;15.484;2023-03-01T13:41:16;6.00;99.90
41469;DHT22;27206;47.032;15.484;2023-03-01T13:43:44;6.00;99.90
41469;DHT22;27206;47.032;15.484;2023-03-01T13:48:38;6.30;99.90
41469;DHT22;27206;47.032;15.484;2023-03-01T13:51:10;6.30;99.90
41469;DHT22;27206;47.032;15.484;2023-03-01T13:53:42;6.20;99.90
41469;DHT22;27206;47.032;15.484;2023-03-01T13:56:20;6.00;99.90
41469;DHT22;27206;47.032;15.484;2023-03-01T14:01:28;6.00;99.90
41469;DHT22;27206;47.032;15.484;2023-03-01T14:03:54;5.90;99.90
41469;DHT22;27206;47.032;15.484;2023-03-01T14:06:26;5.90;99.90
41469;DHT22;27206;47.032;15.484;2023-03-01T14:19:59;6.20;99.90
41469;DHT22;27206;47.032;15.484;2023-03-01T14:22:28;6.10;99.90
41469;DHT22;27206;47.032;15.484;2023-03-01T14:25:16;6.30;99.90
41469;DHT22;27206;47.032;15.484;2023-03-01T14:27:43;6.30;99.90
41469;DHT22;27206;47.032;15.484;2023-03-01T14:30:21;6.30;99.90
41469;DHT22;27206;47.032;15.484;2023-03-01T14:32:59;6.30;99.90
41469;DHT22;27206;47.032;15.484;2023-03-01T14:35:31;6.30;99.90
41469;DHT22;27206;47.032;15.484;2023-03-01T14:37:58;6.20;99.90
41469;DHT22;27206;47.032;15.484;2023-03-01T14:40:29;6.10;99.90
41469;DHT22;27206;47.032;15.484;2023-03-01T14:42:58;6.00;99.90
41469;DHT22;27206;47.032;15.484;2023-03-01T14:45:28;5.90;99.90
41469;DHT22;27206;47.032;15.484;2023-03-01T14:47:55;6.00;99.90
41469;DHT22;27206;47.032;15.484;2023-03-01T14:50:27;5.90;99.90
41469;DHT22;27206;47.032;15.484;2023-03-01T14:52:59;6.00;99.90
41469;DHT22;27206;47.032;15.484;2023-03-01T14:55:38;6.00;99.90
41469;DHT22;27206;47.032;15.484;2023-03-01T14:58:12;5.80;99.90
41469;DHT22;27206;47.032;15.484;2023-03-01T15:00:38;5.80;99.90
41469;DHT22;27206;47.032;15.484;2023-03-01T15:03:12;5.70;99.90
41469;DHT22;27206;47.032;15.484;2023-03-01T15:05:39;5.70;99.90
41469;DHT22;27206;47.032;15.484;2023-03-01T15:08:06;5.60;99.90
41469;DHT22;27206;47.032;15.484;2023-03-01T15:10:35;5.60;99.90
41469;DHT22;27206;47.032;15.484;2023-03-01T15:13:13;5.60;99.90
41469;DHT22;27206;47.032;15.484;2023-03-01T15:15:42;5.60;99.90
41469;DHT22;27206;47.032;15.484;2023-03-01T15:18:28;5.60;99.90
41469;DHT22;27206;47.032;15.484;2023-03-01T15:20:55;5.70;99.90
41469;DHT22;27206;47.032;15.484;2023-03-01T15:23:22;5.70;99.90
41469;DHT22;27206;47.032;15.484;2023-03-01T15:25:49;5.70;99.90
41469;DHT22;27206;47.032;15.484;2023-03-01T15:28:48;5.60;99.90
41469;DHT22;27206;47.032;15.484;2023-03-01T15:31:23;5.60;99.90
41469;DHT22;27206;47.032;15.484;2023-03-01T15:33:50;5.70;99.90
41469;DHT22;27206;47.032;15.484;2023-03-01T15:36:43;5.60;99.90
41469;DHT22;27206;47.032;15.484;2023-03-01T15:39:35;5.60;99.90
41469;DHT22;27206;47.032;15.484;2023-03-01T15:42:09;5.50;99.90
41469;DHT22;27206;47.032;15.484;2023-03-01T15:44:37;5.40;99.90
41469;DHT22;27206;47.032;15.484;2023-03-01T15:47:21;5.50;99.90
41469;DHT22;27206;47.032;15.484;2023-03-01T15:49:47;5.50;99.90
41469;DHT22;27206;47.032;15.484;2023-03-01T15:52:29;5.40;99.90
41469;DHT22;27206;47.032;15.484;2023-03-01T15:55:00;5.40;99.90
41469;DHT22;27206;47.032;15.484;2023-03-01T15:57:26;5.40;99.90
41469;DHT22;27206;47.032;15.484;2023-03-01T15:59:52;5.40;99.90
41469;DHT22;27206;47.032;15.484;2023-03-01T16:02:18;5.40;99.90
41469;DHT22;27206;47.032;15.484;2023-03-01T16:04:46;5.40;99.90
41469;DHT22;27206;47.032;15.484;2023-03-01T16:07:14;5.30;99.90
41469;DHT22;27206;47.032;15.484;2023-03-01T16:09:39;5.30;99.90
41469;DHT22;27206;47.032;15.484;2023-03-01T16:12:08;5.30;99.90
41469;DHT22;27206;47.032;15.484;2023-03-01T16:14:34;5.20;99.90
41469;DHT22;27206;47.032;15.484;2023-03-01T16:17:00;5.10;99.90
41469;DHT22;27206;47.032;15.484;2023-03-01T16:19:25;5.00;99.90
41469;DHT22;27206;47.032;15.484;2023-03-01T16:21:51;5.00;99.90
41469;DHT22;27206;47.032;15.484;2023-03-01T16:24:17;5.00;99.90
41469;DHT22;27206;47.032;15.484;2023-03-01T16:26:43;5.00;99.90
41469;DHT22;27206;47.032;15.484;2023-03-01T16:29:09;5.00;99.90
41469;DHT22;27206;47.032;15.484;2023-03-01T16:31:34;4.90;99.90
41469;DHT22;27206;47.032;15.484;2023-03-01T16:34:00;4.90;99.90
41469;DHT22;27206;47.032;15.484;2023-03-01T16:36:27;4.90;99.90
41469;DHT22;27206;47.032;15.484;2023-03-01T16:38:58;4.90;99.90
41469;DHT22;27206;47.032;15.484;2023-03-01T16:41:26;4.90;99.90
41469;DHT22;27206;47.032;15.484;2023-03-01T16:43:52;4.90;99.90
41469;DHT22;27206;47.032;15.484;2023-03-01T16:46:21;4.90;99.90
41469;DHT22;27206;47.032;15.484;2023-03-01T16:48:47;4.90;99.90
41469;DHT22;27206;47.032;15.484;2023-03-01T16:51:19;4.90;99.90
41469;DHT22;27206;47.032;15.484;2023-03-01T16:53:47;4.90;99.90
41469;DHT22;27206;47.032;15.484;2023-03-01T16:56:13;5.00;99.90
41469;DHT22;27206;47.032;15.484;2023-03-01T16:58:40;4.90;99.90
41469;DHT22;27206;47.032;15.484;2023-03-01T17:01:11;4.90;99.90
41469;DHT22;27206;47.032;15.484;2023-03-01T17:03:38;4.80;99.90
41469;DHT22;27206;47.032;15.484;2023-03-01T17:06:08;4.90;99.90
41469;DHT22;27206;47.032;15.484;2023-03-01T17:08:34;4.70;99.90
41469;DHT22;27206;47.032;15.484;2023-03-01T17:11:09;4.80;99.90
41469;DHT22;27206;47.032;15.484;2023-03-01T17:13:36;4.80;99.90
41469;DHT22;27206;47.032;15.484;2023-03-01T17:16:06;4.80;99.90
41469;DHT22;27206;47.032;15.484;2023-03-01T17:18:33;4.70;99.90
41469;DHT22;27206;47.032;15.484;2023-03-01T17:21:02;4.80;99.90
41469;DHT22;27206;47.032;15.484;2023-03-01T17:23:29;4.80;99.90
41469;DHT22;27206;47.032;15.484;2023-03-01T17:25:55;4.80;1.00
41469;DHT22;27206;47.032;15.484;2023-03-01T17:28:22;4.70;1.00
41469;DHT22;27206;47.032;15.484;2023-03-01T17:30:49;4.60;1.00
41469;DHT22;27206;47.032;15.484;2023-03-01T17:33:15;4.50;1.00